Time;durP1;ratioP1;P1;durP2;ratioP2;P2;SDS_P1;SDS_P2;PMS_P1;PMS_P2;Temp;Humidity;BMP_temperature;BMP_pressure;BME280_temperature;BME280_humidity;BME280_pressure;Samples;Min_cycle;Max_cycle;Signal;HPM_P1;HPM_P2
2023/12/22 00:00:21;;;;;;;;;1.67;0.00;;;;;15.66;100.00;101225.19;5075870;28;63353;-84
2023/12/22 00:02:46;;;;;;;;;0.00;0.00;;;;;15.71;100.00;101230.25;5075693;28;60077;-83
2023/12/22 00:05:12;;;;;;;;;0.00;0.00;;;;;15.74;100.00;101228.38;5075677;28;64996;-83
2023/12/22 00:07:37;;;;;;;;;0.00;0.00;;;;;15.78;100.00;101231.72;5076070;28;47723;-82
2023/12/22 00:10:02;;;;;;;;;0.00;0.00;;;;;15.73;100.00;101226.66;5076791;28;45455;-85
2023/12/22 00:12:28;;;;;;;;;0.00;0.00;;;;;15.67;100.00;101225.13;5041385;28;45282;-83
2023/12/22 00:14:53;;;;;;;;;0.00;0.00;;;;;15.69;100.00;101217.19;5058269;28;46410;-84
2023/12/22 00:17:19;;;;;;;;;0.00;0.00;;;;;15.65;100.00;101223.47;5058419;28;45518;-84
2023/12/22 00:19:44;;;;;;;;;0.00;0.00;;;;;15.58;100.00;101222.03;5041325;28;45440;-85
2023/12/22 00:22:10;;;;;;;;;0.00;0.00;;;;;15.59;100.00;101205.38;5075318;28;68856;-85
2023/12/22 00:24:35;;;;;;;;;0.00;0.00;;;;;15.52;100.00;101217.91;5058216;28;46100;-85
2023/12/22 00:27:00;;;;;;;;;0.00;0.00;;;;;15.51;100.00;101210.97;5058433;28;45418;-84
2023/12/22 00:29:28;;;;;;;;;0.00;0.00;;;;;15.49;100.00;101212.78;5058233;28;45428;-85
2023/12/22 00:31:53;;;;;;;;;0.00;0.00;;;;;15.34;100.00;101208.16;5076197;28;45355;-84
2023/12/22 00:34:19;;;;;;;;;0.00;0.00;;;;;15.40;100.00;101206.16;5076198;28;48026;-84
2023/12/22 00:36:44;;;;;;;;;0.00;0.00;;;;;15.39;100.00;101204.44;5078892;28;45609;-84
2023/12/22 00:39:10;;;;;;;;;0.00;0.00;;;;;15.36;100.00;101215.06;5063809;28;66989;-85
2023/12/22 00:41:35;;;;;;;;;0.00;0.00;;;;;15.32;100.00;101215.25;5081834;28;58083;-84
2023/12/22 00:44:00;;;;;;;;;0.00;0.00;;;;;15.27;100.00;101210.22;5064667;28;46229;-85
2023/12/22 00:46:26;;;;;;;;;0.00;0.00;;;;;15.24;100.00;101195.44;5064308;28;64760;-86
2023/12/22 00:48:51;;;;;;;;;0.00;0.00;;;;;15.24;100.00;101186.72;5064246;28;63595;-86
2023/12/22 00:51:16;;;;;;;;;0.00;0.00;;;;;15.15;100.00;101206.28;5063878;28;45423;-83
2023/12/22 00:53:42;;;;;;;;;0.00;0.00;;;;;15.21;100.00;101208.69;5082445;28;46535;-83
2023/12/22 00:56:07;;;;;;;;;0.00;0.00;;;;;15.26;100.00;101208.47;5082855;27;45243;-84
2023/12/22 00:58:33;;;;;;;;;0.00;0.00;;;;;15.23;100.00;101205.97;5064775;28;45335;-84
2023/12/22 01:00:58;;;;;;;;;0.00;0.00;;;;;15.26;100.00;101200.63;5082151;27;52551;-84
2023/12/22 01:03:23;;;;;;;;;0.00;0.00;;;;;15.27;100.00;101195.31;5064250;28;47699;-84
2023/12/22 01:05:49;;;;;;;;;0.00;0.00;;;;;15.18;100.00;101190.44;5082041;28;45384;-84
2023/12/22 01:08:14;;;;;;;;;0.00;0.00;;;;;15.16;100.00;101200.16;5063742;28;65092;-84
2023/12/22 01:10:39;;;;;;;;;0.00;0.00;;;;;15.16;100.00;101200.16;5062981;28;71337;-83
2023/12/22 01:13:04;;;;;;;;;0.00;0.00;;;;;15.13;100.00;101209.91;5081672;28;59067;-84
2023/12/22 01:15:30;;;;;;;;;0.00;0.00;;;;;15.15;100.00;101234.28;5063107;28;67305;-84
2023/12/22 01:17:55;;;;;;;;;0.00;0.00;;;;;15.12;100.00;101213.44;5063603;28;60526;-84
2023/12/22 01:20:20;;;;;;;;;0.00;0.00;;;;;15.06;100.00;101204.03;5063420;28;45653;-83
2023/12/22 01:22:46;;;;;;;;;0.00;0.00;;;;;15.02;100.00;101211.16;5063655;28;58781;-83
2023/12/22 01:25:11;;;;;;;;;0.00;0.00;;;;;15.03;100.00;101220.75;5063236;28;64964;-83
2023/12/22 01:27:36;;;;;;;;;0.00;0.00;;;;;15.00;100.00;101226.13;5081248;28;66878;-84
2023/12/22 01:30:02;;;;;;;;;0.00;0.00;;;;;15.02;100.00;101226.91;5041871;28;69480;-83
2023/12/22 01:32:34;;;;;;;;;0.00;0.00;;;;;15.04;100.00;101216.38;5080455;28;46675;-83
2023/12/22 01:35:03;;;;;;;;;6.00;1.00;;;;;15.02;100.00;101221.66;5064676;28;45672;-84
2023/12/22 01:37:28;;;;;;;;;0.00;0.00;;;;;15.09;100.00;101223.13;5082284;28;45369;-83
2023/12/22 01:39:54;;;;;;;;;0.00;0.00;;;;;15.14;100.00;101222.13;5081096;28;67673;-83
2023/12/22 01:42:19;;;;;;;;;0.00;0.00;;;;;15.12;100.00;101218.66;5063720;28;46000;-83
2023/12/22 01:44:45;;;;;;;;;0.00;0.00;;;;;15.00;100.00;101210.38;5071561;28;45408;-84
2023/12/22 01:47:10;;;;;;;;;0.00;0.00;;;;;15.10;100.00;101200.41;5061061;28;50929;-83
2023/12/22 01:49:35;;;;;;;;;0.00;0.00;;;;;15.03;100.00;101194.53;5028579;28;68637;-83
2023/12/22 01:52:01;;;;;;;;;0.00;0.00;;;;;15.06;100.00;101194.44;5039164;28;69120;-84
2023/12/22 01:54:26;;;;;;;;;0.00;0.00;;;;;15.05;100.00;101194.50;5058165;28;45346;-84
2023/12/22 01:56:52;;;;;;;;;0.00;0.00;;;;;15.05;100.00;101194.50;5022864;28;69881;-83
2023/12/22 01:59:17;;;;;;;;;0.00;0.00;;;;;15.09;100.00;101204.78;5047868;28;45455;-83
2023/12/22 02:01:45;;;;;;;;;0.00;0.00;;;;;15.14;100.00;101204.59;5059381;28;75575;-83
2023/12/22 02:04:11;;;;;;;;;0.00;0.00;;;;;15.13;100.00;101213.38;5060185;28;45630;-83
2023/12/22 02:06:36;;;;;;;;;0.00;0.00;;;;;15.15;100.00;101221.19;5077823;28;58851;-82
2023/12/22 02:09:03;;;;;;;;;0.00;0.00;;;;;15.16;100.00;101236.84;5059660;28;45398;-83
2023/12/22 02:11:29;;;;;;;;;0.00;0.00;;;;;15.12;100.00;101229.16;5059857;28;47870;-83
2023/12/22 02:13:54;;;;;;;;;0.00;0.00;;;;;15.05;100.00;101234.66;5078238;28;45398;-83
2023/12/22 02:16:33;;;;;;;;;0.00;0.00;;;;;15.11;100.00;101241.44;5060138;28;48888;-84
2023/12/22 02:18:59;;;;;;;;;0.00;0.00;;;;;15.02;100.00;101244.41;5059692;28;45496;-83
2023/12/22 02:21:24;;;;;;;;;0.00;0.00;;;;;15.14;100.00;101256.19;5059856;28;48016;-83
2023/12/22 02:23:50;;;;;;;;;0.00;0.00;;;;;15.16;100.00;101254.38;5058908;28;73229;-84
2023/12/22 02:26:30;;;;;;;;;0.00;0.00;;;;;15.18;100.00;101252.53;5060271;28;45572;-83
2023/12/22 02:28:57;;;;;;;;;0.00;0.00;;;;;15.20;100.00;101261.19;5059798;28;45341;-83
2023/12/22 02:31:30;;;;;;;;;0.00;0.00;;;;;15.21;100.00;101247.16;5059444;28;47137;-84
2023/12/22 02:33:58;;;;;;;;;0.00;0.00;;;;;15.23;100.00;101256.69;5059876;28;45334;-83
2023/12/22 02:36:25;;;;;;;;;0.00;0.00;;;;;15.17;100.00;101256.91;5060062;28;45490;-83
2023/12/22 02:38:52;;;;;;;;;0.00;0.00;;;;;15.18;100.00;101257.78;5069401;28;46715;-84
2023/12/22 02:41:18;;;;;;;;;0.00;0.00;;;;;15.17;100.00;101266.53;5056104;28;70857;-84
2023/12/22 02:43:43;;;;;;;;;0.00;0.00;;;;;15.14;100.00;101259.66;5059063;28;66035;-84
2023/12/22 02:46:15;;;;;;;;;0.00;0.00;;;;;15.22;100.00;101269.84;5059289;28;45598;-83
2023/12/22 02:48:40;;;;;;;;;0.00;0.00;;;;;15.21;100.00;101273.38;5059486;28;45490;-84
2023/12/22 02:51:06;;;;;;;;;0.00;0.00;;;;;15.20;100.00;101251.53;5059524;28;45507;-84
2023/12/22 02:53:31;;;;;;;;;0.00;0.00;;;;;15.18;100.00;101263.88;5076723;28;69467;-84
2023/12/22 02:55:56;;;;;;;;;0.00;0.00;;;;;15.21;100.00;101255.88;5042014;28;71392;-84
2023/12/22 02:58:21;;;;;;;;;0.00;0.00;;;;;15.19;100.00;101254.22;5058832;28;59583;-85
2023/12/22 03:00:47;;;;;;;;;0.00;0.00;;;;;15.23;100.00;101248.81;5057528;28;75343;-85
2023/12/22 03:03:13;;;;;;;;;0.00;0.00;;;;;15.26;100.00;101243.41;5042497;28;45427;-83
2023/12/22 03:05:38;;;;;;;;;0.00;0.00;;;;;15.30;100.00;101238.91;5042820;28;45469;-84
2023/12/22 03:08:04;;;;;;;;;0.00;0.00;;;;;15.25;100.00;101241.72;5042386;28;45600;-84
2023/12/22 03:10:30;;;;;;;;;2.00;0.00;;;;;15.19;100.00;101242.00;5077403;28;46082;-84
2023/12/22 03:12:55;;;;;;;;;0.00;0.00;;;;;15.31;100.00;101240.63;5059280;28;45288;-84
2023/12/22 03:15:20;;;;;;;;;0.00;0.00;;;;;15.35;100.00;101242.19;5057876;28;68921;-84
2023/12/22 03:17:46;;;;;;;;;0.00;0.00;;;;;15.39;100.00;101232.44;5042451;28;45558;-85
2023/12/22 03:20:11;;;;;;;;;0.00;0.00;;;;;15.41;100.00;101230.59;5076714;28;45373;-85
2023/12/22 03:22:36;;;;;;;;;0.00;0.00;;;;;15.36;100.00;101227.31;5058504;28;57267;-84
2023/12/22 03:25:02;;;;;;;;;0.00;0.00;;;;;15.42;100.00;101238.41;5077437;28;45245;-83
2023/12/22 03:27:27;;;;;;;;;0.00;0.00;;;;;15.42;100.00;101227.94;5077485;28;45380;-85
2023/12/22 03:29:53;;;;;;;;;0.00;0.00;;;;;15.38;100.00;101235.97;5058315;28;46104;-84
2023/12/22 03:32:19;;;;;;;;;0.00;0.00;;;;;15.46;100.00;101236.53;5076507;28;64128;-84
2023/12/22 03:34:44;;;;;;;;;0.00;0.00;;;;;15.47;100.00;101239.09;5077266;28;45477;-85
2023/12/22 03:37:10;;;;;;;;;0.00;0.00;;;;;15.47;100.00;101243.47;5076098;28;66322;-84
2023/12/22 03:39:35;;;;;;;;;0.00;0.00;;;;;15.46;100.00;101241.78;5076722;28;46180;-84
2023/12/22 03:42:00;;;;;;;;;0.00;0.00;;;;;15.49;100.00;101232.00;5058076;28;67762;-84
2023/12/22 03:44:26;;;;;;;;;0.00;0.00;;;;;15.48;100.00;101234.69;5075653;28;64030;-82
2023/12/22 03:46:51;;;;;;;;;0.00;0.00;;;;;15.45;100.00;101233.06;5057698;28;65557;-83
2023/12/22 03:49:17;;;;;;;;;0.00;0.00;;;;;15.47;100.00;101231.22;5076476;28;47489;-83
2023/12/22 03:51:42;;;;;;;;;0.00;0.00;;;;;15.40;100.00;101237.63;5076778;28;45388;-85
2023/12/22 03:54:08;;;;;;;;;0.00;0.00;;;;;15.35;100.00;101225.63;5064983;28;45387;-84
2023/12/22 03:56:33;;;;;;;;;0.00;0.00;;;;;15.39;100.00;101230.66;5039018;28;45439;-84
2023/12/22 03:58:58;;;;;;;;;0.00;0.00;;;;;15.40;100.00;101229.75;5040261;28;74427;-84
2023/12/22 04:01:23;;;;;;;;;0.00;0.00;;;;;15.42;100.00;101225.31;5057403;28;69214;-84
2023/12/22 04:03:49;;;;;;;;;0.00;0.00;;;;;15.43;100.00;101227.03;5076852;28;45436;-84
2023/12/22 04:06:14;;;;;;;;;0.00;0.00;;;;;15.47;100.00;101238.22;5076248;28;55161;-83
2023/12/22 04:08:39;;;;;;;;;0.00;0.00;;;;;15.50;100.00;101232.84;5076004;28;46308;-84
2023/12/22 04:11:05;;;;;;;;;0.00;0.00;;;;;15.49;100.00;101239.03;5074851;28;73785;-82
2023/12/22 04:13:30;;;;;;;;;0.00;0.00;;;;;15.38;100.00;101260.44;5075827;28;49559;-83
2023/12/22 04:15:56;;;;;;;;;0.00;0.00;;;;;15.48;100.00;101255.69;5058780;28;45389;-83
2023/12/22 04:18:21;;;;;;;;;0.00;0.00;;;;;15.36;100.00;101248.28;5075771;28;65463;-83
2023/12/22 04:20:46;;;;;;;;;0.00;0.00;;;;;15.44;100.00;101248.84;5074789;28;72910;-85
2023/12/22 04:23:12;;;;;;;;;0.00;0.00;;;;;15.06;100.00;101259.97;5057739;28;60329;-84
2023/12/22 04:25:37;;;;;;;;;0.00;0.00;;;;;15.05;100.00;101255.63;5041385;28;45531;-83
2023/12/22 04:28:03;;;;;;;;;0.00;0.00;;;;;15.02;100.00;101254.91;5056646;28;75232;-83
2023/12/22 04:30:28;;;;;;;;;0.00;0.00;;;;;14.95;100.00;101246.44;5058062;28;45415;-84
2023/12/22 04:32:53;;;;;;;;;0.00;0.00;;;;;14.84;100.00;101245.97;5058564;28;45199;-84
2023/12/22 04:35:19;;;;;;;;;0.00;0.00;;;;;14.82;100.00;101240.81;5058498;28;45543;-84
2023/12/22 04:37:44;;;;;;;;;0.00;0.00;;;;;14.41;100.00;101240.59;5040248;28;72431;-83
2023/12/22 04:40:10;;;;;;;;;0.00;0.00;;;;;14.64;100.00;101241.53;5040030;28;73842;-81
2023/12/22 04:42:35;;;;;;;;;0.00;0.00;;;;;14.57;100.00;101237.38;5076390;28;45406;-82
2023/12/22 04:45:00;;;;;;;;;0.00;0.00;;;;;14.44;100.00;101242.22;5057211;28;69909;-82
2023/12/22 04:47:26;;;;;;;;;0.00;0.00;;;;;14.50;100.00;101232.38;5057294;28;51720;-82
2023/12/22 04:49:51;;;;;;;;;0.00;0.00;;;;;14.47;100.00;101226.41;5074941;28;72965;-82
2023/12/22 04:52:16;;;;;;;;;0.00;0.00;;;;;14.41;100.00;101214.41;5056977;28;68110;-82
2023/12/22 04:54:42;;;;;;;;;0.00;0.00;;;;;14.43;100.00;101215.19;5040233;28;70262;-82
2023/12/22 04:57:07;;;;;;;;;0.00;0.00;;;;;14.36;100.00;101211.09;5057361;28;45761;-82
2023/12/22 04:59:32;;;;;;;;;0.00;0.00;;;;;14.26;100.00;101207.97;5057786;28;45417;-82
2023/12/22 05:01:58;;;;;;;;;0.00;0.00;;;;;14.32;100.00;101202.47;5056845;28;69151;-82
2023/12/22 05:04:23;;;;;;;;;0.00;0.00;;;;;14.35;100.00;101203.28;5057400;28;53143;-82
2023/12/22 05:06:48;;;;;;;;;0.00;0.00;;;;;14.31;100.00;101219.09;5075197;28;56671;-83
2023/12/22 05:09:15;;;;;;;;;0.00;0.00;;;;;14.20;100.00;101234.34;5074723;28;69530;-83
2023/12/22 05:11:40;;;;;;;;;0.00;0.00;;;;;14.33;100.00;101227.75;5075620;28;45375;-82
2023/12/22 05:14:05;;;;;;;;;0.00;0.00;;;;;14.36;100.00;101226.78;5075218;28;58220;-82
2023/12/22 05:16:31;;;;;;;;;0.00;0.00;;;;;14.36;100.00;101226.78;5075547;28;45294;-83
2023/12/22 05:18:59;;;;;;;;;0.00;0.00;;;;;14.40;100.00;101220.53;5075105;28;45504;-83
2023/12/22 05:21:25;;;;;;;;;0.00;0.00;;;;;14.36;100.00;101229.41;5040807;28;45412;-83
2023/12/22 05:23:50;;;;;;;;;0.00;0.00;;;;;14.35;100.00;101225.06;5059113;28;45645;-84
2023/12/22 05:26:19;;;;;;;;;0.00;0.00;;;;;14.32;100.00;101218.19;5060610;28;46698;-84
2023/12/22 05:28:45;;;;;;;;;0.00;0.00;;;;;14.32;100.00;101222.59;5060585;28;45311;-84
2023/12/22 05:31:10;;;;;;;;;0.00;0.00;;;;;14.35;100.00;101222.47;5078842;28;45534;-84
2023/12/22 05:33:35;;;;;;;;;0.00;0.00;;;;;14.30;100.00;101214.78;5060426;28;64364;-84
2023/12/22 05:36:01;;;;;;;;;0.00;0.00;;;;;14.33;100.00;101205.94;5059758;28;75192;-84
2023/12/22 05:38:26;;;;;;;;;0.00;0.00;;;;;14.39;100.00;101218.81;5077903;28;66994;-83
2023/12/22 05:40:51;;;;;;;;;0.00;0.00;;;;;14.38;100.00;101217.13;5077865;28;64921;-84
2023/12/22 05:43:17;;;;;;;;;1.00;1.00;;;;;14.29;100.00;101222.69;5078927;28;45391;-84
2023/12/22 05:45:42;;;;;;;;;0.00;0.00;;;;;14.39;100.00;101212.72;5059717;28;75078;-84
2023/12/22 05:48:08;;;;;;;;;0.00;0.00;;;;;14.36;100.00;101218.94;5043712;28;45472;-83
2023/12/22 05:50:33;;;;;;;;;0.00;0.00;;;;;14.40;100.00;101211.81;5060729;28;45406;-83
2023/12/22 05:52:58;;;;;;;;;0.00;0.00;;;;;14.45;100.00;101196.78;5077875;28;68196;-83
2023/12/22 05:55:24;;;;;;;;;0.00;0.00;;;;;14.36;100.00;101218.94;5077489;28;72402;-84
2023/12/22 05:57:49;;;;;;;;;0.00;0.00;;;;;14.50;100.00;101208.81;5078125;28;45643;-84
2023/12/22 06:00:15;;;;;;;;;0.00;0.00;;;;;14.51;100.00;101213.13;5079366;28;45358;-83
2023/12/22 06:02:41;;;;;;;;;0.00;0.00;;;;;14.53;100.00;101220.94;5078768;28;45539;-84
2023/12/22 06:05:06;;;;;;;;;0.00;0.00;;;;;14.49;100.00;101214.94;5078405;28;46267;-83
2023/12/22 06:07:33;;;;;;;;;0.00;0.00;;;;;14.43;100.00;101222.16;5078138;28;45431;-84
2023/12/22 06:09:58;;;;;;;;;0.00;0.00;;;;;14.64;100.00;101218.78;5078152;28;45438;-83
2023/12/22 06:12:23;;;;;;;;;0.00;0.00;;;;;14.65;100.00;101224.88;5060531;28;45389;-84
2023/12/22 06:14:49;;;;;;;;;0.00;0.00;;;;;14.63;100.00;101213.59;5059309;28;72343;-83
2023/12/22 06:17:14;;;;;;;;;0.00;0.00;;;;;14.69;100.00;101223.84;5077333;28;66574;-85
2023/12/22 06:19:39;;;;;;;;;0.00;0.00;;;;;14.60;100.00;101232.03;5042220;28;65313;-84
2023/12/22 06:22:05;;;;;;;;;0.00;0.00;;;;;14.66;100.00;101226.59;5076957;28;65159;-85
2023/12/22 06:24:31;;;;;;;;;0.00;0.00;;;;;14.57;100.00;101242.63;5060021;28;45482;-85
2023/12/22 06:26:56;;;;;;;;;0.00;0.00;;;;;14.62;100.00;101235.47;5077653;28;45600;-84
2023/12/22 06:29:21;;;;;;;;;0.25;0.00;;;;;14.49;100.00;101254.25;5059562;28;45368;-84
2023/12/22 06:31:50;;;;;;;;;0.00;0.00;;;;;14.62;100.00;101235.47;5077537;28;70162;-84
2023/12/22 06:34:16;;;;;;;;;0.00;0.00;;;;;14.61;100.00;101239.84;5058463;28;46193;-85
2023/12/22 06:36:42;;;;;;;;;0.00;0.00;;;;;14.64;100.00;101233.66;5078078;28;45402;-85
2023/12/22 06:39:08;;;;;;;;;0.00;0.00;;;;;14.65;100.00;101233.59;5078039;28;45377;-85
2023/12/22 06:41:33;;;;;;;;;0.00;0.00;;;;;14.65;100.00;101236.22;5060055;28;45464;-84
2023/12/22 06:44:01;;;;;;;;;0.00;0.00;;;;;14.69;100.00;101231.69;5077887;28;47123;-85
2023/12/22 06:46:28;;;;;;;;;0.00;0.00;;;;;14.73;100.00;101224.56;5059700;28;45329;-83
2023/12/22 06:48:54;;;;;;;;;0.00;0.00;;;;;14.71;100.00;101225.50;5058775;28;45441;-83
2023/12/22 06:51:20;;;;;;;;;0.00;0.00;;;;;14.76;100.00;101229.69;5058630;28;45304;-84
2023/12/22 06:53:47;;;;;;;;;0.00;0.00;;;;;14.74;100.00;101224.50;5071840;28;46208;-84
2023/12/22 06:56:17;;;;;;;;;0.00;0.00;;;;;14.74;100.00;101218.44;5038605;28;45483;-82
2023/12/22 06:58:42;;;;;;;;;0.00;0.00;;;;;14.75;100.00;101212.28;5075318;28;45587;-82
2023/12/22 07:01:07;;;;;;;;;0.00;0.00;;;;;14.67;100.00;101218.69;5042541;28;45286;-83
2023/12/22 07:03:33;;;;;;;;;0.00;0.00;;;;;14.55;100.00;101226.97;5077080;28;45437;-82
2023/12/22 07:05:58;;;;;;;;;0.00;0.00;;;;;14.67;100.00;101223.91;5076850;28;58133;-82
2023/12/22 07:08:23;;;;;;;;;0.00;0.00;;;;;14.59;100.00;101233.81;5076296;28;45470;-81
2023/12/22 07:10:49;;;;;;;;;0.00;0.00;;;;;14.41;100.00;101229.22;5077255;28;45424;-82
2023/12/22 07:13:14;;;;;;;;;0.00;0.00;;;;;14.47;100.00;101229.88;5057598;28;74348;-81
2023/12/22 07:15:39;;;;;;;;;0.00;0.00;;;;;14.35;100.00;101238.16;5076399;28;71167;-86
2023/12/22 07:18:05;;;;;;;;;1.50;1.50;;;;;14.39;100.00;101236.28;5076514;28;45347;-86
2023/12/22 07:20:30;;;;;;;;;0.00;0.00;;;;;14.35;100.00;101238.16;5058819;28;45373;-86
2023/12/22 07:22:56;;;;;;;;;0.00;0.00;;;;;14.36;100.00;101237.28;5076457;28;57670;-85
2023/12/22 07:25:21;;;;;;;;;0.00;0.00;;;;;14.39;100.00;101228.44;5077028;28;45383;-86
2023/12/22 07:27:47;;;;;;;;;0.00;0.00;;;;;14.36;100.00;101232.03;5077618;28;45392;-85
2023/12/22 07:30:15;;;;;;;;;0.00;0.00;;;;;14.37;100.00;101230.25;5058786;28;45459;-86
2023/12/22 07:32:42;;;;;;;;;0.00;0.00;;;;;14.36;100.00;101239.00;5059297;28;46657;-84
2023/12/22 07:35:07;;;;;;;;;0.00;0.00;;;;;14.40;100.00;101241.47;5076915;28;45227;-83
2023/12/22 07:37:35;;;;;;;;;0.00;0.00;;;;;14.48;100.00;101242.03;5077005;28;45378;-85
2023/12/22 07:40:00;;;;;;;;;0.00;0.00;;;;;14.50;100.00;101244.59;5058469;28;45476;-84
2023/12/22 07:42:26;;;;;;;;;0.00;0.00;;;;;14.55;100.00;101245.28;5057505;28;69119;-83
2023/12/22 07:44:51;;;;;;;;;0.00;0.00;;;;;14.53;100.00;101255.81;5072617;28;57085;-83
2023/12/22 07:47:16;;;;;;;;;0.00;0.00;;;;;14.58;100.00;101249.59;5069758;28;61981;-84
2023/12/22 07:49:42;;;;;;;;;0.00;0.00;;;;;14.51;100.00;101265.50;5057833;28;45305;-85
2023/12/22 07:52:07;;;;;;;;;0.00;0.00;;;;;14.64;100.00;101258.09;5074744;28;45602;-82
2023/12/22 07:54:33;;;;;;;;;0.00;0.00;;;;;14.64;100.00;101257.25;5075405;28;45494;-82
2023/12/22 07:56:58;;;;;;;;;0.00;0.00;;;;;14.67;100.00;101257.97;5074156;28;69151;-82
2023/12/22 07:59:24;;;;;;;;;0.00;0.00;;;;;14.68;100.00;101251.81;5075428;28;45377;-82
2023/12/22 08:01:49;;;;;;;;;0.00;0.00;;;;;14.76;100.00;101264.63;5076236;28;45406;-83
2023/12/22 08:04:15;;;;;;;;;0.00;0.00;;;;;14.66;100.00;101289.47;5068679;28;65906;-83
2023/12/22 08:06:40;;;;;;;;;0.00;0.00;;;;;14.74;100.00;101274.31;5055077;28;64524;-82
2023/12/22 08:09:06;;;;;;;;;0.00;0.00;;;;;14.75;100.00;101285.66;5038078;28;45323;-83
2023/12/22 08:11:31;;;;;;;;;0.00;0.00;;;;;14.65;100.00;101285.13;5063476;28;46443;-83
2023/12/22 08:13:56;;;;;;;;;0.00;0.00;;;;;14.60;100.00;101287.06;5050855;28;71699;-82
2023/12/22 08:16:21;;;;;;;;;0.00;0.00;;;;;14.58;100.00;101286.25;5064792;28;65500;-81
2023/12/22 08:18:47;;;;;;;;;0.00;0.00;;;;;14.58;100.00;101281.91;5070032;28;68114;-80
2023/12/22 08:21:13;;;;;;;;;0.00;0.00;;;;;14.60;100.00;101277.47;5050975;28;73208;-81
2023/12/22 08:23:39;;;;;;;;;0.00;0.00;;;;;14.55;100.00;101283.75;5020649;28;47560;-82
2023/12/22 08:26:04;;;;;;;;;0.00;0.00;;;;;14.63;100.00;101279.09;5045397;28;69295;-82
2023/12/22 08:28:29;;;;;;;;;0.00;0.00;;;;;14.68;100.00;101274.53;5024492;28;45592;-82
2023/12/22 08:30:55;;;;;;;;;0.00;0.00;;;;;14.69;100.00;101284.97;5074160;28;46152;-82
2023/12/22 08:33:20;;;;;;;;;0.00;0.00;;;;;14.71;100.00;101283.16;5073938;28;71887;-81
2023/12/22 08:35:45;;;;;;;;;0.00;0.00;;;;;14.75;100.00;101280.41;5067688;28;64421;-81
2023/12/22 08:38:13;;;;;;;;;0.67;0.67;;;;;14.79;100.00;101287.25;5069215;28;68532;-82
2023/12/22 08:40:38;;;;;;;;;0.00;0.00;;;;;14.82;100.00;101293.22;5067857;28;47359;-82
2023/12/22 08:43:06;;;;;;;;;0.00;0.00;;;;;14.70;100.00;101283.19;5036930;28;45435;-81
2023/12/22 08:45:31;;;;;;;;;0.00;0.00;;;;;14.83;100.00;101288.84;5068030;28;45595;-82
2023/12/22 08:47:57;;;;;;;;;0.00;0.00;;;;;14.86;100.00;101286.09;5045158;28;45519;-83
2023/12/22 08:50:22;;;;;;;;;0.00;0.00;;;;;14.96;100.00;101279.59;5072357;28;45474;-82
2023/12/22 08:52:47;;;;;;;;;0.00;0.00;;;;;15.00;100.00;101285.56;5071927;28;45453;-82
2023/12/22 08:55:13;;;;;;;;;0.00;0.00;;;;;15.03;100.00;101288.06;5074042;28;45275;-82
2023/12/22 08:57:39;;;;;;;;;0.00;0.00;;;;;14.99;100.00;101302.19;5037822;28;64442;-83
2023/12/22 09:00:05;;;;;;;;;0.00;0.00;;;;;15.06;100.00;101293.19;5076878;28;46066;-82
2023/12/22 09:02:30;;;;;;;;;0.00;0.00;;;;;15.07;100.00;101289.66;5064557;28;45389;-82
2023/12/22 09:04:56;;;;;;;;;0.00;0.00;;;;;15.02;100.00;101292.44;5075736;27;68111;-83
2023/12/22 09:07:22;;;;;;;;;0.00;0.00;;;;;14.99;100.00;101299.56;5039439;28;59042;-84
2023/12/22 09:09:47;;;;;;;;;0.00;0.00;;;;;15.05;100.00;101308.06;5059912;28;46660;-84
2023/12/22 09:12:13;;;;;;;;;0.00;0.00;;;;;15.06;100.00;101315.03;5058522;28;45604;-84
2023/12/22 09:14:38;;;;;;;;;0.00;0.00;;;;;15.14;100.00;101313.88;5077692;28;67026;-81
2023/12/22 09:17:03;;;;;;;;;0.00;0.00;;;;;15.28;100.00;101309.81;5077429;28;45432;-83
2023/12/22 09:19:32;;;;;;;;;0.00;0.00;;;;;15.42;100.00;101317.13;5059366;28;63002;-82
2023/12/22 09:21:57;;;;;;;;;0.00;0.00;;;;;15.52;100.00;101309.72;5060651;28;45938;-82
2023/12/22 09:24:23;;;;;;;;;0.00;0.00;;;;;15.55;100.00;101309.59;5041013;28;68791;-83
2023/12/22 09:26:50;;;;;;;;;0.00;0.00;;;;;15.63;100.00;101319.78;5043156;28;45604;-83
2023/12/22 09:29:16;;;;;;;;;0.00;0.00;;;;;15.65;100.00;101307.44;5054138;28;46477;-83
2023/12/22 09:31:42;;;;;;;;;0.00;0.00;;;;;15.67;100.00;101310.88;5059158;28;45667;-84
2023/12/22 09:34:07;;;;;;;;;0.00;0.00;;;;;15.73;100.00;101317.63;5058918;28;45393;-82
2023/12/22 09:36:32;;;;;;;;;0.00;0.00;;;;;15.75;100.00;101318.44;5059050;28;45511;-84
2023/12/22 09:38:58;;;;;;;;;0.00;0.00;;;;;15.83;100.00;101319.00;5041739;28;63789;-82
2023/12/22 09:41:24;;;;;;;;;0.00;0.00;;;;;15.87;100.00;101326.69;5059160;28;45516;-84
2023/12/22 09:43:50;;;;;;;;;0.00;0.00;;;;;15.82;100.00;101331.28;5059038;28;45440;-84
2023/12/22 09:46:18;;;;;;;;;0.00;0.00;;;;;15.96;100.00;101338.56;5055232;28;45332;-84
2023/12/22 09:48:45;;;;;;;;;0.00;0.00;;;;;15.97;100.00;101335.03;5056013;28;46240;-82
2023/12/22 09:51:12;;;;;;;;;0.00;0.00;;;;;15.90;100.00;101341.47;5051171;28;75276;-82
2023/12/22 09:53:39;;;;;;;;;0.00;0.00;;;;;15.77;100.00;101337.66;5043497;28;45618;-84
2023/12/22 09:56:05;;;;;;;;;0.00;0.00;;;;;15.68;100.00;101334.44;5039312;28;45602;-83
2023/12/22 09:58:31;;;;;;;;;0.00;0.00;;;;;15.71;100.00;101328.19;5023144;28;50033;-85
2023/12/22 10:00:56;;;;;;;;;0.00;0.00;;;;;15.77;100.00;101335.88;5054756;28;45326;-82
2023/12/22 10:03:24;;;;;;;;;0.00;0.00;;;;;15.73;100.00;101331.63;5058798;28;45809;-82
2023/12/22 10:05:50;;;;;;;;;0.00;0.00;;;;;15.71;100.00;101341.31;5058061;28;45302;-83
2023/12/22 10:08:16;;;;;;;;;0.00;0.00;;;;;15.60;100.00;101333.91;5073382;28;76012;-84
2023/12/22 10:10:43;;;;;;;;;0.00;0.00;;;;;15.56;100.00;101342.78;5041804;28;45518;-83
2023/12/22 10:13:11;;;;;;;;;0.00;0.00;;;;;15.64;100.00;101340.72;5059882;28;45476;-83
2023/12/22 10:15:43;;;;;;;;;7.50;4.50;;;;;15.64;100.00;101340.72;5059463;27;45574;-83
2023/12/22 10:18:09;;;;;;;;;0.00;0.00;;;;;15.73;100.00;101352.63;5076774;28;46048;-83
2023/12/22 10:20:35;;;;;;;;;0.00;0.00;;;;;15.76;100.00;101346.41;5035796;28;45574;-84
2023/12/22 10:23:00;;;;;;;;;0.00;0.00;;;;;15.65;100.00;101365.19;5058253;28;45439;-85
2023/12/22 10:25:29;;;;;;;;;0.00;0.00;;;;;15.62;100.00;101353.06;5058142;28;65082;-83
2023/12/22 10:27:55;;;;;;;;;0.00;0.00;;;;;15.72;100.00;101348.28;5076260;28;45577;-83
2023/12/22 10:30:20;;;;;;;;;0.00;0.00;;;;;15.80;100.00;101340.97;5076258;28;45364;-84
2023/12/22 10:32:46;;;;;;;;;0.00;0.00;;;;;15.84;100.00;101347.81;5058175;28;45732;-84
2023/12/22 10:35:12;;;;;;;;;0.00;0.00;;;;;15.86;100.00;101350.34;5059556;28;45465;-84
2023/12/22 10:37:37;;;;;;;;;0.00;0.00;;;;;15.85;100.00;101340.78;5059308;28;46158;-83
2023/12/22 10:40:07;;;;;;;;;0.00;0.00;;;;;15.82;100.00;101351.41;5076096;28;63915;-83
2023/12/22 10:42:33;;;;;;;;;0.00;0.00;;;;;15.80;100.00;101343.59;5058255;28;45488;-83
2023/12/22 10:44:58;;;;;;;;;0.00;0.00;;;;;15.73;100.00;101346.50;5077211;28;45333;-83
2023/12/22 10:47:24;;;;;;;;;0.00;0.00;;;;;15.73;100.00;101346.50;5040804;28;76595;-84
2023/12/22 10:49:49;;;;;;;;;0.00;0.00;;;;;15.49;100.00;101349.22;5059274;28;45372;-85
2023/12/22 10:52:17;;;;;;;;;0.00;0.00;;;;;15.45;100.00;101343.25;5076256;28;51303;-84
2023/12/22 10:54:43;;;;;;;;;0.00;0.00;;;;;15.55;100.00;101335.84;5076356;28;45508;-84
2023/12/22 10:57:10;;;;;;;;;0.00;0.00;;;;;15.62;100.00;101339.94;5058764;27;48912;-83
2023/12/22 10:59:39;;;;;;;;;0.00;0.00;;;;;15.56;100.00;101334.06;5058348;28;45591;-82
2023/12/22 11:02:06;;;;;;;;;0.00;0.00;;;;;15.48;100.00;101331.75;5076844;28;45327;-83
2023/12/22 11:04:36;;;;;;;;;0.00;0.00;;;;;15.40;100.00;101332.06;5076096;28;46785;-84
2023/12/22 11:07:38;;;;;;;;;0.00;0.00;;;;;15.40;100.00;101324.19;5058952;28;45750;-87
2023/12/22 11:10:06;;;;;;;;;0.00;0.00;;;;;15.39;100.00;101311.13;5058782;28;45900;-83